• Join FlightAware (Why Join?)
  • Login
  • US Flag 
12:06PM EDT


 

Airport Tracker/Info


-or-


 

Live Flight TrackerFlight Track Log ✈ N7260Q ✈ 15-Mar-2014 ✈ KSPG - KAPF

Flight Track Log - Related Links

Times and Time Zones

All times are in EDT time to prevent confusion due to time zone crossing. See the N7260Q flight status page for this flight to view local times or setup timezone preferences in your user account.

Time Position Orientation Groundspeed Altitude Reporting Facility
EDT Latitude Longitude Course Direction KTS MPH feet Rate Location/Type
01:14PM 27.7667 -82.6167 360° North 135 155 200  Level Tampa TRACON
01:15PM 27.7833 -82.6167 360° North 89 102 900 780 Climbing Tampa TRACON
01:16PM 27.7833 -82.6500 270° West 102 117 1,600 600 Climbing Tampa TRACON
01:17PM 27.7833 -82.6833 270° West 101 116 2,100 540 Climbing Tampa TRACON
01:18PM 27.7833 -82.7167 270° West 103 119 2,700 540 Climbing Tampa TRACON
01:19PM 27.7667 -82.7333 222° Southwest 104 120 3,200 540 Climbing Tampa TRACON
01:20PM 27.7500 -82.7667 241° Southwest 103 119 3,800 540 Climbing Tampa TRACON
01:21PM 27.7333 -82.7833 222° Southwest 93 107 4,400 540 Climbing Tampa TRACON
01:22PM 27.7167 -82.7667 138° Southeast 88 101 4,900 300 Climbing Tampa TRACON
01:23PM 27.6833 -82.7500 156° South 103 119 5,000  Climbing Tampa TRACON
01:24PM 27.6500 -82.7333 156° South 129 148 4,900  Descending Tampa TRACON
01:25PM 27.6167 -82.7167 156° South 124 143 5,000  Climbing Tampa TRACON
01:26PM 27.6000 -82.7000 138° Southeast 121 139 5,000  Level Tampa TRACON
01:27PM 27.5667 -82.6833 156° South 116 133 5,000  Level Tampa TRACON
01:28PM 27.5333 -82.6667 156° South 114 131 5,000  Level Tampa TRACON
01:29PM 27.5167 -82.6500 138° Southeast 116 133 5,000  Level Tampa TRACON
01:30PM 27.4833 -82.6333 156° South 113 130 5,000  Level Tampa TRACON
01:31PM 27.4500 -82.6167 156° South 121 139 5,000  Level Tampa TRACON
01:32PM 27.4167 -82.6000 156° South 122 140 5,000  Level Tampa TRACON
01:33PM 27.3833 -82.5833 156° South 117 135 5,000 -60 Level Tampa TRACON
01:34PM 27.3667 -82.5667 138° Southeast 115 132 4,900  Descending Tampa TRACON
01:35PM 27.3333 -82.5500 156° South 113 130 5,000  Climbing Tampa TRACON
01:36PM 27.3000 -82.5333 156° South 111 128 5,000  Level Tampa TRACON
01:37PM 27.2833 -82.5167 138° Southeast 115 132 5,000  Level Tampa TRACON
01:38PM 27.2500 -82.5167 180° South 114 131 5,000  Level Tampa TRACON
01:39PM 27.2167 -82.4833 138° Southeast 115 132 5,000  Level Tampa TRACON
01:40PM 27.2000 -82.4833 180° South 117 135 5,000  Level Tampa TRACON
01:41PM 27.1667 -82.4667 156° South 116 133 5,000  Level Tampa TRACON
01:43PM 27.1339 -82.4372 141° Southeast  Level FlightAware Approximate
01:50PM 26.9689 -82.2964 150° Southeast  Level FlightAware Approximate
01:51PM 26.9436 -82.2799 150° Southeast  Level FlightAware Approximate
01:52PM 26.9183 -82.2634 150° Southeast  Level FlightAware Approximate
01:53PM 26.8930 -82.2469 150° Southeast  Level FlightAware Approximate
01:54PM 26.8677 -82.2304 150° Southeast  Level FlightAware Approximate
01:55PM 26.8424 -82.2139 150° Southeast  Level FlightAware Approximate
01:56PM 26.8170 -82.1975 150° Southeast  Level FlightAware Approximate
01:57PM 26.7917 -82.1810 150° Southeast  Level FlightAware Approximate
01:58PM 26.7664 -82.1646 150° Southeast  Level FlightAware Approximate
01:59PM 26.7411 -82.1481 150° Southeast  Level FlightAware Approximate
02:00PM 26.7158 -82.1317 150° Southeast  Level FlightAware Approximate
02:01PM 26.6905 -82.1152 150° Southeast  Level FlightAware Approximate
02:02PM 26.6651 -82.0988 150° Southeast  Level FlightAware Approximate
02:03PM 26.6398 -82.0824 150° Southeast  Level FlightAware Approximate
02:04PM 26.6145 -82.0660 150° Southeast  Level FlightAware Approximate
02:05PM 26.5891 -82.0496 150° Southeast  Level FlightAware Approximate
02:06PM 26.5638 -82.0332 150° Southeast  Level FlightAware Approximate
02:07PM 26.5385 -82.0168 150° Southeast  Level FlightAware Approximate
02:08PM 26.5131 -82.0005 150° Southeast  Level FlightAware Approximate
02:09PM 26.4878 -81.9841 150° Southeast  Level FlightAware Approximate
02:10PM 26.4625 -81.9677 150° Southeast  Level FlightAware Approximate
02:11PM 26.4371 -81.9514 150° Southeast  Level FlightAware Approximate
02:12PM 26.4118 -81.9350 150° Southeast  Level FlightAware Approximate
02:13PM 26.3864 -81.9187 150° Southeast  Level FlightAware Approximate
02:14PM 26.3611 -81.9023 150° Southeast  Level FlightAware Approximate
02:15PM 26.3358 -81.8860 150° Southeast  Level FlightAware Approximate
02:16PM 26.3104 -81.8697 150° Southeast  Level FlightAware Approximate
02:17PM 26.2850 -81.8534 150° Southeast  Level FlightAware Approximate
02:18PM 26.2597 -81.8371 150° Southeast  Level FlightAware Approximate
02:19PM 26.2343 -81.8208 150° Southeast  Level FlightAware Approximate
02:20PM 26.2090 -81.8045 150° Southeast  Level FlightAware Approximate
02:21PM 26.1836 -81.7882 150° Southeast  Level FlightAware Approximate
02:22PM 26.1583 -81.7720 150° Southeast  Level FlightAware Approximate
02:23PM 26.1500 -81.7667 150° Southeast  Level FlightAware Approximate
02:24PM 26.1524 -81.7756 150° Southeast  Level Estimated
02:25PM 26.1524 -81.7756 150° Southeast  Level Estimated
02:26PM 26.1524 -81.7756 150° Southeast  Level Estimated
02:27PM 26.1524 -81.7756 150° Southeast  Level Estimated
02:28PM 26.1524 -81.7756 150° Southeast  Level Estimated
02:29PM 26.1524 -81.7756 150° Southeast  Level Estimated
02:30PM 26.1524 -81.7756 150° Southeast  Level Estimated